sensor_id;sensor_type;location;lat;lon;timestamp;P1;durP1;ratioP1;P2;durP2;ratioP2
10882;SDS011;5494;51.796;10.952;2022-09-20T00:01:41;5.17;;;1.00;;
10882;SDS011;5494;51.796;10.952;2022-09-20T00:04:09;6.30;;;1.83;;
10882;SDS011;5494;51.796;10.952;2022-09-20T00:06:37;5.77;;;1.33;;
10882;SDS011;5494;51.796;10.952;2022-09-20T00:09:06;4.87;;;1.70;;
10882;SDS011;5494;51.796;10.952;2022-09-20T00:11:35;10.93;;;1.90;;
10882;SDS011;5494;51.796;10.952;2022-09-20T00:14:05;5.83;;;1.33;;
10882;SDS011;5494;51.796;10.952;2022-09-20T00:16:35;5.83;;;1.40;;
10882;SDS011;5494;51.796;10.952;2022-09-20T00:19:07;6.60;;;1.37;;
10882;SDS011;5494;51.796;10.952;2022-09-20T00:21:44;8.70;;;1.40;;
10882;SDS011;5494;51.796;10.952;2022-09-20T00:24:12;7.73;;;1.97;;
10882;SDS011;5494;51.796;10.952;2022-09-20T00:26:41;5.93;;;1.40;;
10882;SDS011;5494;51.796;10.952;2022-09-20T00:29:11;3.00;;;1.10;;
10882;SDS011;5494;51.796;10.952;2022-09-20T00:31:40;5.37;;;1.40;;
10882;SDS011;5494;51.796;10.952;2022-09-20T00:34:09;5.90;;;1.50;;
10882;SDS011;5494;51.796;10.952;2022-09-20T00:36:56;7.93;;;2.00;;
10882;SDS011;5494;51.796;10.952;2022-09-20T00:39:24;4.07;;;1.67;;
10882;SDS011;5494;51.796;10.952;2022-09-20T00:41:53;4.27;;;1.57;;
10882;SDS011;5494;51.796;10.952;2022-09-20T00:44:46;7.00;;;1.90;;
10882;SDS011;5494;51.796;10.952;2022-09-20T00:47:25;6.10;;;1.70;;
10882;SDS011;5494;51.796;10.952;2022-09-20T00:50:03;6.33;;;1.97;;
10882;SDS011;5494;51.796;10.952;2022-09-20T00:52:45;5.03;;;1.83;;
10882;SDS011;5494;51.796;10.952;2022-09-20T00:55:21;7.17;;;1.60;;
10882;SDS011;5494;51.796;10.952;2022-09-20T00:57:50;4.47;;;1.80;;
10882;SDS011;5494;51.796;10.952;2022-09-20T01:00:21;4.27;;;2.03;;
10882;SDS011;5494;51.796;10.952;2022-09-20T01:02:51;8.97;;;2.60;;
10882;SDS011;5494;51.796;10.952;2022-09-20T01:05:24;5.83;;;2.10;;
10882;SDS011;5494;51.796;10.952;2022-09-20T01:07:54;8.93;;;2.97;;
10882;SDS011;5494;51.796;10.952;2022-09-20T01:10:24;7.50;;;2.03;;
10882;SDS011;5494;51.796;10.952;2022-09-20T01:12:52;5.23;;;2.23;;
10882;SDS011;5494;51.796;10.952;2022-09-20T01:15:22;4.00;;;1.77;;
10882;SDS011;5494;51.796;10.952;2022-09-20T01:17:54;6.27;;;2.23;;
10882;SDS011;5494;51.796;10.952;2022-09-20T01:20:28;10.00;;;2.30;;
10882;SDS011;5494;51.796;10.952;2022-09-20T01:26:06;4.13;;;2.23;;
10882;SDS011;5494;51.796;10.952;2022-09-20T01:29:09;9.40;;;3.00;;
10882;SDS011;5494;51.796;10.952;2022-09-20T01:31:54;15.20;;;4.40;;
10882;SDS011;5494;51.796;10.952;2022-09-20T01:34:28;8.60;;;2.53;;
10882;SDS011;5494;51.796;10.952;2022-09-20T01:37:04;7.43;;;2.60;;
10882;SDS011;5494;51.796;10.952;2022-09-20T01:39:44;6.97;;;2.10;;
10882;SDS011;5494;51.796;10.952;2022-09-20T01:42:28;6.13;;;2.47;;
10882;SDS011;5494;51.796;10.952;2022-09-20T01:45:02;7.77;;;3.33;;
10882;SDS011;5494;51.796;10.952;2022-09-20T01:47:43;6.03;;;2.70;;
10882;SDS011;5494;51.796;10.952;2022-09-20T01:50:24;5.10;;;1.80;;
10882;SDS011;5494;51.796;10.952;2022-09-20T01:53:07;5.73;;;1.93;;
10882;SDS011;5494;51.796;10.952;2022-09-20T01:59:34;5.17;;;1.97;;
10882;SDS011;5494;51.796;10.952;2022-09-20T02:06:01;6.93;;;2.53;;
10882;SDS011;5494;51.796;10.952;2022-09-20T02:12:12;6.30;;;2.97;;
10882;SDS011;5494;51.796;10.952;2022-09-20T02:15:02;9.50;;;2.87;;
10882;SDS011;5494;51.796;10.952;2022-09-20T02:17:47;8.47;;;3.20;;
10882;SDS011;5494;51.796;10.952;2022-09-20T02:20:37;7.07;;;2.50;;
10882;SDS011;5494;51.796;10.952;2022-09-20T02:23:28;8.80;;;2.60;;
10882;SDS011;5494;51.796;10.952;2022-09-20T02:26:14;9.97;;;2.83;;
10882;SDS011;5494;51.796;10.952;2022-09-20T02:29:07;7.90;;;2.70;;
10882;SDS011;5494;51.796;10.952;2022-09-20T02:31:59;6.10;;;3.07;;
10882;SDS011;5494;51.796;10.952;2022-09-20T02:38:00;7.47;;;2.47;;
10882;SDS011;5494;51.796;10.952;2022-09-20T02:40:59;7.90;;;2.60;;
10882;SDS011;5494;51.796;10.952;2022-09-20T02:43:53;4.10;;;2.37;;
10882;SDS011;5494;51.796;10.952;2022-09-20T02:46:32;5.73;;;2.40;;
10882;SDS011;5494;51.796;10.952;2022-09-20T02:49:13;6.83;;;2.10;;
10882;SDS011;5494;51.796;10.952;2022-09-20T02:51:54;6.93;;;1.93;;
10882;SDS011;5494;51.796;10.952;2022-09-20T02:54:32;5.50;;;1.70;;
10882;SDS011;5494;51.796;10.952;2022-09-20T02:57:13;8.13;;;2.50;;
10882;SDS011;5494;51.796;10.952;2022-09-20T02:59:52;6.20;;;1.93;;
10882;SDS011;5494;51.796;10.952;2022-09-20T03:02:29;6.17;;;2.40;;
10882;SDS011;5494;51.796;10.952;2022-09-20T03:05:25;5.80;;;2.00;;
10882;SDS011;5494;51.796;10.952;2022-09-20T03:08:06;7.10;;;1.70;;
10882;SDS011;5494;51.796;10.952;2022-09-20T03:10:58;8.20;;;1.90;;
10882;SDS011;5494;51.796;10.952;2022-09-20T03:13:47;8.90;;;1.93;;
10882;SDS011;5494;51.796;10.952;2022-09-20T03:16:33;6.53;;;1.60;;
10882;SDS011;5494;51.796;10.952;2022-09-20T03:19:22;4.50;;;1.73;;
10882;SDS011;5494;51.796;10.952;2022-09-20T03:22:10;2.90;;;2.03;;
10882;SDS011;5494;51.796;10.952;2022-09-20T03:25:06;4.77;;;1.73;;
10882;SDS011;5494;51.796;10.952;2022-09-20T03:28:16;3.73;;;1.60;;
10882;SDS011;5494;51.796;10.952;2022-09-20T03:31:17;6.40;;;2.13;;
10882;SDS011;5494;51.796;10.952;2022-09-20T03:34:02;5.27;;;1.70;;
10882;SDS011;5494;51.796;10.952;2022-09-20T03:36:47;4.17;;;1.63;;
10882;SDS011;5494;51.796;10.952;2022-09-20T03:39:52;5.73;;;2.00;;
10882;SDS011;5494;51.796;10.952;2022-09-20T03:42:51;7.97;;;1.90;;
10882;SDS011;5494;51.796;10.952;2022-09-20T03:48:21;6.20;;;2.00;;
10882;SDS011;5494;51.796;10.952;2022-09-20T03:51:19;12.83;;;2.60;;
10882;SDS011;5494;51.796;10.952;2022-09-20T03:54:03;4.23;;;2.13;;
10882;SDS011;5494;51.796;10.952;2022-09-20T03:57:17;4.90;;;2.40;;
10882;SDS011;5494;51.796;10.952;2022-09-20T04:00:18;6.27;;;2.10;;
10882;SDS011;5494;51.796;10.952;2022-09-20T04:02:55;6.97;;;1.90;;
10882;SDS011;5494;51.796;10.952;2022-09-20T04:06:05;4.93;;;2.03;;
10882;SDS011;5494;51.796;10.952;2022-09-20T04:09:03;4.10;;;2.00;;
10882;SDS011;5494;51.796;10.952;2022-09-20T04:11:59;6.70;;;2.13;;
10882;SDS011;5494;51.796;10.952;2022-09-20T04:14:42;5.43;;;1.70;;
10882;SDS011;5494;51.796;10.952;2022-09-20T04:17:25;5.10;;;2.00;;
10882;SDS011;5494;51.796;10.952;2022-09-20T04:20:14;10.47;;;2.87;;
10882;SDS011;5494;51.796;10.952;2022-09-20T04:22:50;4.50;;;1.90;;
10882;SDS011;5494;51.796;10.952;2022-09-20T04:25:26;8.20;;;2.33;;
10882;SDS011;5494;51.796;10.952;2022-09-20T04:28:10;8.03;;;2.17;;
10882;SDS011;5494;51.796;10.952;2022-09-20T04:30:46;5.50;;;2.20;;
10882;SDS011;5494;51.796;10.952;2022-09-20T04:33:23;5.27;;;1.93;;
10882;SDS011;5494;51.796;10.952;2022-09-20T04:35:59;5.60;;;2.00;;
10882;SDS011;5494;51.796;10.952;2022-09-20T04:38:58;5.03;;;2.13;;
10882;SDS011;5494;51.796;10.952;2022-09-20T04:41:52;7.20;;;2.20;;
10882;SDS011;5494;51.796;10.952;2022-09-20T04:52:04;8.33;;;2.60;;
10882;SDS011;5494;51.796;10.952;2022-09-20T04:55:10;8.93;;;2.60;;
10882;SDS011;5494;51.796;10.952;2022-09-20T04:58:27;7.23;;;2.23;;
10882;SDS011;5494;51.796;10.952;2022-09-20T05:01:16;5.10;;;2.47;;
10882;SDS011;5494;51.796;10.952;2022-09-20T05:04:36;8.10;;;3.20;;
10882;SDS011;5494;51.796;10.952;2022-09-20T05:08:10;4.90;;;2.90;;
10882;SDS011;5494;51.796;10.952;2022-09-20T05:11:20;8.70;;;2.60;;
10882;SDS011;5494;51.796;10.952;2022-09-20T05:14:34;7.07;;;3.00;;
10882;SDS011;5494;51.796;10.952;2022-09-20T05:17:21;7.93;;;3.93;;
10882;SDS011;5494;51.796;10.952;2022-09-20T05:20:09;9.87;;;3.43;;
10882;SDS011;5494;51.796;10.952;2022-09-20T05:23:11;7.20;;;3.60;;
10882;SDS011;5494;51.796;10.952;2022-09-20T05:26:17;8.50;;;3.33;;
10882;SDS011;5494;51.796;10.952;2022-09-20T05:29:03;9.33;;;4.00;;
10882;SDS011;5494;51.796;10.952;2022-09-20T05:31:46;8.57;;;3.50;;
10882;SDS011;5494;51.796;10.952;2022-09-20T05:34:29;7.17;;;3.80;;
10882;SDS011;5494;51.796;10.952;2022-09-20T05:37:10;10.50;;;4.40;;
10882;SDS011;5494;51.796;10.952;2022-09-20T05:39:56;10.90;;;3.90;;
10882;SDS011;5494;51.796;10.952;2022-09-20T05:42:34;8.27;;;3.80;;
10882;SDS011;5494;51.796;10.952;2022-09-20T05:45:16;11.67;;;4.07;;
10882;SDS011;5494;51.796;10.952;2022-09-20T05:48:16;6.57;;;3.63;;
10882;SDS011;5494;51.796;10.952;2022-09-20T05:50:57;7.63;;;3.80;;
10882;SDS011;5494;51.796;10.952;2022-09-20T05:57:06;7.43;;;4.10;;
10882;SDS011;5494;51.796;10.952;2022-09-20T05:59:54;12.10;;;4.30;;
10882;SDS011;5494;51.796;10.952;2022-09-20T06:02:40;6.03;;;3.90;;
10882;SDS011;5494;51.796;10.952;2022-09-20T06:05:25;11.70;;;5.07;;
10882;SDS011;5494;51.796;10.952;2022-09-20T06:11:18;8.13;;;4.23;;
10882;SDS011;5494;51.796;10.952;2022-09-20T06:14:13;11.80;;;4.50;;
10882;SDS011;5494;51.796;10.952;2022-09-20T06:17:01;8.00;;;4.67;;
10882;SDS011;5494;51.796;10.952;2022-09-20T06:19:45;9.77;;;4.63;;
10882;SDS011;5494;51.796;10.952;2022-09-20T06:22:26;9.00;;;4.70;;
10882;SDS011;5494;51.796;10.952;2022-09-20T06:25:01;10.30;;;5.10;;
10882;SDS011;5494;51.796;10.952;2022-09-20T06:27:42;13.97;;;7.67;;
10882;SDS011;5494;51.796;10.952;2022-09-20T06:30:19;13.70;;;6.67;;
10882;SDS011;5494;51.796;10.952;2022-09-20T06:32:54;7.93;;;4.90;;
10882;SDS011;5494;51.796;10.952;2022-09-20T06:35:26;9.43;;;4.67;;
10882;SDS011;5494;51.796;10.952;2022-09-20T06:38:11;9.40;;;5.10;;
10882;SDS011;5494;51.796;10.952;2022-09-20T06:41:21;5.47;;;4.53;;
10882;SDS011;5494;51.796;10.952;2022-09-20T06:43:57;8.70;;;4.57;;
10882;SDS011;5494;51.796;10.952;2022-09-20T06:46:31;11.37;;;4.60;;
10882;SDS011;5494;51.796;10.952;2022-09-20T06:49:02;8.57;;;4.27;;
10882;SDS011;5494;51.796;10.952;2022-09-20T06:51:35;7.30;;;3.83;;
10882;SDS011;5494;51.796;10.952;2022-09-20T06:54:06;5.90;;;3.93;;
10882;SDS011;5494;51.796;10.952;2022-09-20T06:56:43;9.57;;;3.80;;
10882;SDS011;5494;51.796;10.952;2022-09-20T06:59:13;5.97;;;2.93;;
10882;SDS011;5494;51.796;10.952;2022-09-20T07:01:44;7.30;;;2.93;;
10882;SDS011;5494;51.796;10.952;2022-09-20T07:04:12;6.60;;;3.80;;
10882;SDS011;5494;51.796;10.952;2022-09-20T07:06:40;8.43;;;3.63;;
10882;SDS011;5494;51.796;10.952;2022-09-20T07:09:09;7.63;;;3.57;;
10882;SDS011;5494;51.796;10.952;2022-09-20T07:11:38;8.80;;;3.67;;
10882;SDS011;5494;51.796;10.952;2022-09-20T07:14:07;8.13;;;3.87;;
10882;SDS011;5494;51.796;10.952;2022-09-20T07:16:36;7.37;;;3.57;;
10882;SDS011;5494;51.796;10.952;2022-09-20T07:19:07;7.07;;;3.90;;
10882;SDS011;5494;51.796;10.952;2022-09-20T07:21:36;8.10;;;3.33;;
10882;SDS011;5494;51.796;10.952;2022-09-20T07:24:04;9.50;;;4.97;;
10882;SDS011;5494;51.796;10.952;2022-09-20T07:26:33;7.57;;;4.23;;
10882;SDS011;5494;51.796;10.952;2022-09-20T07:29:02;10.07;;;4.50;;
10882;SDS011;5494;51.796;10.952;2022-09-20T07:31:32;6.77;;;3.90;;
10882;SDS011;5494;51.796;10.952;2022-09-20T07:34:00;8.17;;;3.70;;
10882;SDS011;5494;51.796;10.952;2022-09-20T07:36:31;7.83;;;3.70;;
10882;SDS011;5494;51.796;10.952;2022-09-20T07:38:59;9.17;;;3.77;;
10882;SDS011;5494;51.796;10.952;2022-09-20T07:41:28;7.07;;;3.67;;
10882;SDS011;5494;51.796;10.952;2022-09-20T07:43:57;8.50;;;3.40;;
10882;SDS011;5494;51.796;10.952;2022-09-20T07:46:46;7.43;;;4.33;;
10882;SDS011;5494;51.796;10.952;2022-09-20T07:49:15;7.93;;;4.33;;
10882;SDS011;5494;51.796;10.952;2022-09-20T07:51:46;11.03;;;5.73;;
10882;SDS011;5494;51.796;10.952;2022-09-20T07:54:15;6.40;;;3.77;;
10882;SDS011;5494;51.796;10.952;2022-09-20T07:56:44;6.53;;;3.17;;
10882;SDS011;5494;51.796;10.952;2022-09-20T07:59:13;12.23;;;3.10;;
10882;SDS011;5494;51.796;10.952;2022-09-20T08:01:42;6.53;;;3.47;;
10882;SDS011;5494;51.796;10.952;2022-09-20T08:04:11;6.83;;;3.50;;
10882;SDS011;5494;51.796;10.952;2022-09-20T08:06:41;9.93;;;3.73;;
10882;SDS011;5494;51.796;10.952;2022-09-20T08:09:13;5.87;;;2.57;;
10882;SDS011;5494;51.796;10.952;2022-09-20T08:11:41;7.33;;;3.23;;
10882;SDS011;5494;51.796;10.952;2022-09-20T08:14:11;8.10;;;2.80;;
10882;SDS011;5494;51.796;10.952;2022-09-20T08:16:42;8.63;;;3.57;;
10882;SDS011;5494;51.796;10.952;2022-09-20T08:19:13;5.70;;;2.90;;
10882;SDS011;5494;51.796;10.952;2022-09-20T08:21:45;6.37;;;3.20;;
10882;SDS011;5494;51.796;10.952;2022-09-20T08:24:15;7.10;;;2.87;;
10882;SDS011;5494;51.796;10.952;2022-09-20T08:26:44;9.80;;;3.50;;
10882;SDS011;5494;51.796;10.952;2022-09-20T08:29:13;5.60;;;2.70;;
10882;SDS011;5494;51.796;10.952;2022-09-20T08:31:42;5.03;;;2.40;;
10882;SDS011;5494;51.796;10.952;2022-09-20T08:34:12;8.63;;;2.90;;
10882;SDS011;5494;51.796;10.952;2022-09-20T08:36:45;4.60;;;2.43;;
10882;SDS011;5494;51.796;10.952;2022-09-20T08:39:18;5.33;;;2.40;;
10882;SDS011;5494;51.796;10.952;2022-09-20T08:42:09;7.03;;;2.90;;
10882;SDS011;5494;51.796;10.952;2022-09-20T08:44:46;7.03;;;3.90;;
10882;SDS011;5494;51.796;10.952;2022-09-20T08:47:25;8.50;;;4.73;;
10882;SDS011;5494;51.796;10.952;2022-09-20T08:49:57;9.60;;;4.67;;
10882;SDS011;5494;51.796;10.952;2022-09-20T08:52:43;6.53;;;3.97;;
10882;SDS011;5494;51.796;10.952;2022-09-20T08:55:17;7.77;;;4.63;;
10882;SDS011;5494;51.796;10.952;2022-09-20T08:57:48;6.77;;;4.87;;
10882;SDS011;5494;51.796;10.952;2022-09-20T09:00:21;8.03;;;4.03;;
10882;SDS011;5494;51.796;10.952;2022-09-20T09:02:53;5.03;;;3.80;;
10882;SDS011;5494;51.796;10.952;2022-09-20T09:05:28;4.77;;;3.40;;
10882;SDS011;5494;51.796;10.952;2022-09-20T09:08:02;7.23;;;3.63;;
10882;SDS011;5494;51.796;10.952;2022-09-20T09:10:45;4.57;;;3.03;;
10882;SDS011;5494;51.796;10.952;2022-09-20T09:13:22;5.40;;;3.30;;
10882;SDS011;5494;51.796;10.952;2022-09-20T09:15:59;3.97;;;3.37;;
10882;SDS011;5494;51.796;10.952;2022-09-20T09:18:34;6.60;;;3.67;;
10882;SDS011;5494;51.796;10.952;2022-09-20T09:21:07;5.53;;;4.00;;
10882;SDS011;5494;51.796;10.952;2022-09-20T09:23:45;6.33;;;4.27;;
10882;SDS011;5494;51.796;10.952;2022-09-20T09:26:23;5.23;;;4.33;;
10882;SDS011;5494;51.796;10.952;2022-09-20T09:31:44;10.10;;;4.50;;
10882;SDS011;5494;51.796;10.952;2022-09-20T09:34:24;5.13;;;4.07;;
10882;SDS011;5494;51.796;10.952;2022-09-20T09:36:54;4.10;;;3.67;;
10882;SDS011;5494;51.796;10.952;2022-09-20T09:39:25;5.33;;;3.57;;
10882;SDS011;5494;51.796;10.952;2022-09-20T09:41:58;3.80;;;3.23;;
10882;SDS011;5494;51.796;10.952;2022-09-20T09:44:28;5.30;;;3.57;;
10882;SDS011;5494;51.796;10.952;2022-09-20T09:47:00;5.80;;;4.87;;
10882;SDS011;5494;51.796;10.952;2022-09-20T09:49:29;5.60;;;5.10;;
10882;SDS011;5494;51.796;10.952;2022-09-20T09:52:09;9.07;;;5.70;;
10882;SDS011;5494;51.796;10.952;2022-09-20T09:54:42;8.00;;;5.60;;
10882;SDS011;5494;51.796;10.952;2022-09-20T09:57:27;7.13;;;5.70;;
10882;SDS011;5494;51.796;10.952;2022-09-20T10:00:11;6.20;;;4.80;;
10882;SDS011;5494;51.796;10.952;2022-09-20T10:02:52;7.97;;;4.60;;
10882;SDS011;5494;51.796;10.952;2022-09-20T10:05:42;6.27;;;4.30;;
10882;SDS011;5494;51.796;10.952;2022-09-20T10:08:27;5.37;;;4.20;;
10882;SDS011;5494;51.796;10.952;2022-09-20T10:11:11;5.80;;;4.03;;
10882;SDS011;5494;51.796;10.952;2022-09-20T10:14:01;4.93;;;4.13;;
10882;SDS011;5494;51.796;10.952;2022-09-20T10:16:57;6.17;;;3.90;;
10882;SDS011;5494;51.796;10.952;2022-09-20T10:19:48;6.77;;;4.13;;
10882;SDS011;5494;51.796;10.952;2022-09-20T10:22:35;5.47;;;3.93;;
10882;SDS011;5494;51.796;10.952;2022-09-20T10:25:38;9.07;;;4.57;;
10882;SDS011;5494;51.796;10.952;2022-09-20T10:28:24;8.77;;;5.23;;
10882;SDS011;5494;51.796;10.952;2022-09-20T10:31:18;6.43;;;5.43;;
10882;SDS011;5494;51.796;10.952;2022-09-20T10:34:12;8.23;;;6.57;;
10882;SDS011;5494;51.796;10.952;2022-09-20T10:37:05;8.93;;;6.97;;
10882;SDS011;5494;51.796;10.952;2022-09-20T10:39:46;8.27;;;6.63;;
10882;SDS011;5494;51.796;10.952;2022-09-20T10:42:34;6.63;;;5.70;;
10882;SDS011;5494;51.796;10.952;2022-09-20T10:45:40;6.60;;;5.10;;
10882;SDS011;5494;51.796;10.952;2022-09-20T10:48:49;5.33;;;4.83;;
10882;SDS011;5494;51.796;10.952;2022-09-20T10:51:43;5.47;;;4.20;;
10882;SDS011;5494;51.796;10.952;2022-09-20T10:54:32;4.63;;;4.20;;
10882;SDS011;5494;51.796;10.952;2022-09-20T10:57:18;5.33;;;4.37;;
10882;SDS011;5494;51.796;10.952;2022-09-20T11:00:18;5.77;;;5.07;;
10882;SDS011;5494;51.796;10.952;2022-09-20T11:02:53;7.67;;;5.93;;
10882;SDS011;5494;51.796;10.952;2022-09-20T11:05:50;6.53;;;5.50;;
10882;SDS011;5494;51.796;10.952;2022-09-20T11:08:35;5.90;;;5.30;;
10882;SDS011;5494;51.796;10.952;2022-09-20T11:11:06;6.70;;;5.93;;
10882;SDS011;5494;51.796;10.952;2022-09-20T11:13:41;8.80;;;6.80;;
10882;SDS011;5494;51.796;10.952;2022-09-20T11:16:25;8.17;;;6.90;;
10882;SDS011;5494;51.796;10.952;2022-09-20T11:19:03;7.20;;;6.60;;
10882;SDS011;5494;51.796;10.952;2022-09-20T11:21:47;7.67;;;6.77;;
10882;SDS011;5494;51.796;10.952;2022-09-20T11:24:25;8.47;;;7.27;;
10882;SDS011;5494;51.796;10.952;2022-09-20T11:27:01;9.17;;;6.37;;
10882;SDS011;5494;51.796;10.952;2022-09-20T11:29:40;7.77;;;6.90;;
10882;SDS011;5494;51.796;10.952;2022-09-20T11:32:18;7.97;;;7.17;;
10882;SDS011;5494;51.796;10.952;2022-09-20T11:34:54;8.30;;;7.17;;
10882;SDS011;5494;51.796;10.952;2022-09-20T11:37:31;8.97;;;7.60;;
10882;SDS011;5494;51.796;10.952;2022-09-20T11:40:09;9.57;;;7.27;;
10882;SDS011;5494;51.796;10.952;2022-09-20T11:42:47;10.43;;;7.93;;
10882;SDS011;5494;51.796;10.952;2022-09-20T11:45:19;9.70;;;7.27;;
10882;SDS011;5494;51.796;10.952;2022-09-20T11:47:55;11.03;;;8.10;;
10882;SDS011;5494;51.796;10.952;2022-09-20T11:50:35;9.97;;;6.93;;
10882;SDS011;5494;51.796;10.952;2022-09-20T11:53:44;9.17;;;7.27;;
10882;SDS011;5494;51.796;10.952;2022-09-20T11:56:47;8.40;;;6.93;;
10882;SDS011;5494;51.796;10.952;2022-09-20T11:59:24;9.07;;;7.20;;
10882;SDS011;5494;51.796;10.952;2022-09-20T12:02:00;8.87;;;7.30;;
10882;SDS011;5494;51.796;10.952;2022-09-20T12:04:42;9.70;;;6.40;;
10882;SDS011;5494;51.796;10.952;2022-09-20T12:07:19;7.77;;;6.53;;
10882;SDS011;5494;51.796;10.952;2022-09-20T12:09:54;5.97;;;5.20;;
10882;SDS011;5494;51.796;10.952;2022-09-20T12:12:31;5.37;;;4.87;;
10882;SDS011;5494;51.796;10.952;2022-09-20T12:15:21;4.40;;;3.80;;
10882;SDS011;5494;51.796;10.952;2022-09-20T12:18:04;4.70;;;4.13;;
10882;SDS011;5494;51.796;10.952;2022-09-20T12:21:02;6.50;;;4.20;;
10882;SDS011;5494;51.796;10.952;2022-09-20T12:26:48;6.03;;;4.80;;
10882;SDS011;5494;51.796;10.952;2022-09-20T12:32:43;4.60;;;3.90;;
10882;SDS011;5494;51.796;10.952;2022-09-20T12:38:53;7.23;;;4.30;;
10882;SDS011;5494;51.796;10.952;2022-09-20T12:41:27;4.20;;;3.60;;
10882;SDS011;5494;51.796;10.952;2022-09-20T12:44:24;5.87;;;3.40;;
10882;SDS011;5494;51.796;10.952;2022-09-20T12:46:59;5.47;;;2.90;;
10882;SDS011;5494;51.796;10.952;2022-09-20T12:49:36;6.30;;;3.27;;
10882;SDS011;5494;51.796;10.952;2022-09-20T12:52:34;6.60;;;3.50;;
10882;SDS011;5494;51.796;10.952;2022-09-20T12:58:21;5.43;;;3.63;;
10882;SDS011;5494;51.796;10.952;2022-09-20T13:10:30;4.87;;;2.70;;
10882;SDS011;5494;51.796;10.952;2022-09-20T13:13:10;3.27;;;2.10;;
10882;SDS011;5494;51.796;10.952;2022-09-20T13:15:54;2.37;;;2.10;;
10882;SDS011;5494;51.796;10.952;2022-09-20T13:18:26;3.27;;;2.33;;
10882;SDS011;5494;51.796;10.952;2022-09-20T13:20:57;3.40;;;2.10;;
10882;SDS011;5494;51.796;10.952;2022-09-20T13:23:34;3.23;;;2.73;;
10882;SDS011;5494;51.796;10.952;2022-09-20T13:26:15;2.30;;;2.00;;
10882;SDS011;5494;51.796;10.952;2022-09-20T13:28:51;3.53;;;1.93;;
10882;SDS011;5494;51.796;10.952;2022-09-20T13:31:25;3.67;;;2.30;;
10882;SDS011;5494;51.796;10.952;2022-09-20T13:34:16;2.90;;;2.40;;
10882;SDS011;5494;51.796;10.952;2022-09-20T13:36:50;3.13;;;2.50;;
10882;SDS011;5494;51.796;10.952;2022-09-20T13:39:23;2.63;;;2.43;;
10882;SDS011;5494;51.796;10.952;2022-09-20T13:41:59;3.80;;;1.93;;
10882;SDS011;5494;51.796;10.952;2022-09-20T13:44:32;4.67;;;2.30;;
10882;SDS011;5494;51.796;10.952;2022-09-20T13:47:05;3.83;;;2.30;;
10882;SDS011;5494;51.796;10.952;2022-09-20T13:49:51;4.40;;;1.90;;
10882;SDS011;5494;51.796;10.952;2022-09-20T13:52:23;2.87;;;1.60;;
10882;SDS011;5494;51.796;10.952;2022-09-20T13:54:54;1.63;;;1.20;;
10882;SDS011;5494;51.796;10.952;2022-09-20T13:57:25;1.70;;;1.20;;
10882;SDS011;5494;51.796;10.952;2022-09-20T13:59:57;5.83;;;1.20;;
10882;SDS011;5494;51.796;10.952;2022-09-20T14:02:37;2.80;;;1.40;;
10882;SDS011;5494;51.796;10.952;2022-09-20T14:05:12;4.03;;;1.23;;
10882;SDS011;5494;51.796;10.952;2022-09-20T14:07:46;1.30;;;1.20;;
10882;SDS011;5494;51.796;10.952;2022-09-20T14:10:29;2.63;;;1.30;;
10882;SDS011;5494;51.796;10.952;2022-09-20T14:13:03;2.23;;;1.43;;
10882;SDS011;5494;51.796;10.952;2022-09-20T14:15:35;2.43;;;1.87;;
10882;SDS011;5494;51.796;10.952;2022-09-20T14:18:10;2.40;;;1.77;;
10882;SDS011;5494;51.796;10.952;2022-09-20T14:20:45;3.10;;;2.00;;
10882;SDS011;5494;51.796;10.952;2022-09-20T14:23:18;4.40;;;1.60;;
10882;SDS011;5494;51.796;10.952;2022-09-20T14:26:05;2.77;;;1.80;;
10882;SDS011;5494;51.796;10.952;2022-09-20T14:28:51;3.23;;;1.70;;
10882;SDS011;5494;51.796;10.952;2022-09-20T14:31:21;1.77;;;1.40;;
10882;SDS011;5494;51.796;10.952;2022-09-20T14:33:57;3.87;;;1.60;;
10882;SDS011;5494;51.796;10.952;2022-09-20T14:36:31;1.77;;;1.23;;
10882;SDS011;5494;51.796;10.952;2022-09-20T14:39:00;3.57;;;1.70;;
10882;SDS011;5494;51.796;10.952;2022-09-20T14:41:32;1.90;;;1.20;;
10882;SDS011;5494;51.796;10.952;2022-09-20T14:44:05;3.83;;;1.80;;
10882;SDS011;5494;51.796;10.952;2022-09-20T14:46:52;2.20;;;1.40;;
10882;SDS011;5494;51.796;10.952;2022-09-20T14:49:29;3.27;;;1.03;;
10882;SDS011;5494;51.796;10.952;2022-09-20T14:55:16;1.00;;;0.90;;
10882;SDS011;5494;51.796;10.952;2022-09-20T14:58:03;1.47;;;1.13;;
10882;SDS011;5494;51.796;10.952;2022-09-20T15:00:46;1.73;;;0.87;;
10882;SDS011;5494;51.796;10.952;2022-09-20T15:03:22;1.40;;;0.90;;
10882;SDS011;5494;51.796;10.952;2022-09-20T15:05:54;1.47;;;0.80;;
10882;SDS011;5494;51.796;10.952;2022-09-20T15:08:24;0.70;;;0.60;;
10882;SDS011;5494;51.796;10.952;2022-09-20T15:10:53;0.77;;;0.57;;
10882;SDS011;5494;51.796;10.952;2022-09-20T15:13:21;0.87;;;0.53;;
10882;SDS011;5494;51.796;10.952;2022-09-20T15:15:50;0.50;;;0.50;;
10882;SDS011;5494;51.796;10.952;2022-09-20T15:18:22;1.00;;;0.77;;
10882;SDS011;5494;51.796;10.952;2022-09-20T15:20:54;1.00;;;0.90;;
10882;SDS011;5494;51.796;10.952;2022-09-20T15:23:23;1.20;;;0.60;;
10882;SDS011;5494;51.796;10.952;2022-09-20T15:25:52;0.93;;;0.50;;
10882;SDS011;5494;51.796;10.952;2022-09-20T15:28:22;1.23;;;0.90;;
10882;SDS011;5494;51.796;10.952;2022-09-20T15:30:52;1.73;;;1.23;;
10882;SDS011;5494;51.796;10.952;2022-09-20T15:33:21;3.13;;;1.20;;
10882;SDS011;5494;51.796;10.952;2022-09-20T15:35:50;1.37;;;0.70;;
10882;SDS011;5494;51.796;10.952;2022-09-20T15:38:18;0.80;;;0.80;;
10882;SDS011;5494;51.796;10.952;2022-09-20T15:40:49;2.53;;;0.70;;
10882;SDS011;5494;51.796;10.952;2022-09-20T15:43:19;2.00;;;0.70;;
10882;SDS011;5494;51.796;10.952;2022-09-20T15:45:53;2.37;;;0.73;;
10882;SDS011;5494;51.796;10.952;2022-09-20T15:48:27;0.83;;;0.70;;
10882;SDS011;5494;51.796;10.952;2022-09-20T15:51:01;1.00;;;0.80;;
10882;SDS011;5494;51.796;10.952;2022-09-20T15:53:32;2.00;;;1.27;;
10882;SDS011;5494;51.796;10.952;2022-09-20T15:56:11;2.20;;;1.17;;
10882;SDS011;5494;51.796;10.952;2022-09-20T15:58:43;1.67;;;0.70;;
10882;SDS011;5494;51.796;10.952;2022-09-20T16:01:14;1.20;;;0.70;;
10882;SDS011;5494;51.796;10.952;2022-09-20T16:03:45;1.77;;;0.60;;
10882;SDS011;5494;51.796;10.952;2022-09-20T16:06:15;1.70;;;0.90;;
10882;SDS011;5494;51.796;10.952;2022-09-20T16:08:43;2.50;;;0.77;;
10882;SDS011;5494;51.796;10.952;2022-09-20T16:11:14;1.47;;;0.70;;
10882;SDS011;5494;51.796;10.952;2022-09-20T16:13:51;1.93;;;0.80;;
10882;SDS011;5494;51.796;10.952;2022-09-20T16:16:21;2.70;;;1.10;;
10882;SDS011;5494;51.796;10.952;2022-09-20T16:18:51;2.00;;;0.60;;
10882;SDS011;5494;51.796;10.952;2022-09-20T16:21:37;2.07;;;0.90;;
10882;SDS011;5494;51.796;10.952;2022-09-20T16:24:08;6.43;;;0.90;;
10882;SDS011;5494;51.796;10.952;2022-09-20T16:26:39;1.73;;;0.70;;
10882;SDS011;5494;51.796;10.952;2022-09-20T16:29:07;1.30;;;0.60;;
10882;SDS011;5494;51.796;10.952;2022-09-20T16:31:37;2.00;;;0.80;;
10882;SDS011;5494;51.796;10.952;2022-09-20T16:34:10;3.40;;;1.60;;
10882;SDS011;5494;51.796;10.952;2022-09-20T16:36:44;2.80;;;2.10;;
10882;SDS011;5494;51.796;10.952;2022-09-20T16:39:15;4.47;;;2.53;;
10882;SDS011;5494;51.796;10.952;2022-09-20T16:41:48;3.80;;;2.70;;
10882;SDS011;5494;51.796;10.952;2022-09-20T16:44:18;3.90;;;1.97;;
10882;SDS011;5494;51.796;10.952;2022-09-20T16:46:47;4.93;;;2.37;;
10882;SDS011;5494;51.796;10.952;2022-09-20T16:49:16;6.83;;;4.23;;
10882;SDS011;5494;51.796;10.952;2022-09-20T16:51:45;7.60;;;4.90;;
10882;SDS011;5494;51.796;10.952;2022-09-20T16:54:14;6.23;;;3.03;;
10882;SDS011;5494;51.796;10.952;2022-09-20T16:56:46;4.17;;;2.27;;
10882;SDS011;5494;51.796;10.952;2022-09-20T16:59:18;3.20;;;1.87;;
10882;SDS011;5494;51.796;10.952;2022-09-20T17:01:48;5.97;;;2.50;;
10882;SDS011;5494;51.796;10.952;2022-09-20T17:04:18;2.60;;;2.00;;